createdAt,value
2022-12-18T00:01:23.362Z,43.72
2022-12-18T00:03:50.372Z,43.43
2022-12-18T00:06:17.732Z,43.10
2022-12-18T00:08:45.143Z,33.90
2022-12-18T00:11:16.314Z,35.22
2022-12-18T00:13:43.132Z,39.95
2022-12-18T00:16:15.629Z,41.03
2022-12-18T00:18:42.861Z,33.13
2022-12-18T00:21:11.089Z,41.25
2022-12-18T00:23:38.522Z,31.45
2022-12-18T00:26:08.816Z,25.73
2022-12-18T00:28:35.302Z,35.87
2022-12-18T00:31:10.294Z,33.42
2022-12-18T00:33:37.520Z,27.92
2022-12-18T00:36:24.836Z,35.63
2022-12-18T00:38:51.494Z,30.98
2022-12-18T00:41:39.204Z,27.80
2022-12-18T00:44:06.973Z,34.92
2022-12-18T00:46:33.442Z,29.30
2022-12-18T00:48:59.952Z,37.05
2022-12-18T00:51:27.520Z,35.20
2022-12-18T00:53:53.973Z,14.63
2022-12-18T00:56:20.420Z,26.10
2022-12-18T00:58:46.812Z,30.00
2022-12-18T01:01:15.738Z,30.58
2022-12-18T01:03:42.345Z,38.00
2022-12-18T01:06:10.951Z,24.73
2022-12-18T01:08:37.374Z,31.25
2022-12-18T01:11:12.824Z,35.30
2022-12-18T01:13:40.753Z,33.67
2022-12-18T01:16:07.701Z,37.38
2022-12-18T01:18:34.258Z,32.97
2022-12-18T01:21:00.786Z,34.85
2022-12-18T01:23:27.236Z,35.22
2022-12-18T01:25:53.677Z,39.33
2022-12-18T01:28:20.418Z,39.15
2022-12-18T01:30:49.290Z,37.53
2022-12-18T01:33:15.822Z,40.97
2022-12-18T01:35:45.619Z,41.17
2022-12-18T01:38:12.068Z,31.25
2022-12-18T01:40:38.568Z,39.00
2022-12-18T01:43:05.081Z,37.40
2022-12-18T01:45:32.574Z,44.25
2022-12-18T01:48:07.165Z,39.88
2022-12-18T01:50:38.370Z,37.75
2022-12-18T01:53:17.026Z,27.33
2022-12-18T01:55:51.827Z,40.27
2022-12-18T01:58:20.033Z,45.15
2022-12-18T02:00:46.879Z,43.45
2022-12-18T02:03:16.788Z,46.22
2022-12-18T02:05:47.383Z,45.80
2022-12-18T02:08:29.189Z,39.30
2022-12-18T02:11:15.453Z,36.08
2022-12-18T02:13:52.167Z,39.80
2022-12-18T02:16:29.093Z,39.95
2022-12-18T02:19:01.275Z,42.28
2022-12-18T02:21:49.015Z,42.27
2022-12-18T02:24:44.632Z,37.42
2022-12-18T02:27:13.610Z,44.42
2022-12-18T02:29:44.971Z,41.75
2022-12-18T02:32:15.567Z,37.70
2022-12-18T02:34:43.334Z,41.83
2022-12-18T02:37:15.007Z,46.55
2022-12-18T02:39:43.213Z,47.80
2022-12-18T02:42:10.039Z,39.40
2022-12-18T02:44:44.411Z,39.40
2022-12-18T02:47:16.167Z,41.70
2022-12-18T02:49:59.999Z,41.30
2022-12-18T02:52:47.540Z,33.50
2022-12-18T02:55:37.160Z,29.85
2022-12-18T02:58:18.342Z,39.55
2022-12-18T03:01:09.790Z,36.73
2022-12-18T03:03:41.077Z,32.42
2022-12-18T03:06:17.441Z,32.25
2022-12-18T03:08:51.176Z,36.30
2022-12-18T03:11:37.763Z,32.70
2022-12-18T03:14:05.047Z,33.80
2022-12-18T03:16:34.643Z,30.52
2022-12-18T03:19:08.539Z,32.03
2022-12-18T03:21:41.427Z,30.02
2022-12-18T03:24:09.201Z,25.33
2022-12-18T03:26:36.818Z,25.37
2022-12-18T03:29:09.050Z,25.77
2022-12-18T03:31:36.014Z,33.58
2022-12-18T03:34:06.896Z,27.13
2022-12-18T03:36:33.337Z,30.20
2022-12-18T03:38:59.922Z,28.73
2022-12-18T03:41:49.738Z,34.72
2022-12-18T03:44:31.441Z,27.20
2022-12-18T03:47:31.549Z,22.52
2022-12-18T03:50:33.227Z,26.30
2022-12-18T03:53:14.839Z,26.80
2022-12-18T03:55:41.757Z,27.38
2022-12-18T03:58:17.464Z,27.70
2022-12-18T04:00:52.276Z,25.60
2022-12-18T04:03:22.689Z,28.17
2022-12-18T04:05:53.852Z,29.00
2022-12-18T04:08:22.702Z,24.17
2022-12-18T04:10:50.507Z,23.67
2022-12-18T04:13:30.264Z,27.30
2022-12-18T04:15:57.112Z,22.42
2022-12-18T04:18:23.548Z,20.33
2022-12-18T04:20:50.041Z,26.17
2022-12-18T04:23:16.477Z,27.48
2022-12-18T04:25:45.337Z,20.70
2022-12-18T04:28:11.829Z,22.63
2022-12-18T04:30:38.290Z,21.97
2022-12-18T04:33:13.241Z,30.38
2022-12-18T04:35:42.698Z,20.30
2022-12-18T04:38:09.731Z,20.77
2022-12-18T04:40:36.776Z,21.58
2022-12-18T04:43:04.302Z,24.40
2022-12-18T04:45:31.961Z,25.40
2022-12-18T04:48:03.267Z,28.13
2022-12-18T04:50:30.479Z,23.48
2022-12-18T04:52:57.496Z,20.77
2022-12-18T04:55:25.526Z,25.33
2022-12-18T04:57:51.938Z,22.40
2022-12-18T05:00:18.554Z,23.90
2022-12-18T05:02:45.166Z,23.55
2022-12-18T05:05:14.584Z,45.75
2022-12-18T05:07:41.040Z,23.17
2022-12-18T05:10:08.599Z,20.27
2022-12-18T05:12:56.657Z,22.38
2022-12-18T05:15:23.126Z,20.90
2022-12-18T05:17:49.544Z,25.13
2022-12-18T05:20:16.081Z,23.30
2022-12-18T05:22:42.644Z,21.23
2022-12-18T05:25:09.457Z,21.15
2022-12-18T05:27:36.114Z,23.05
2022-12-18T05:30:02.737Z,20.42
2022-12-18T05:32:29.184Z,22.83
2022-12-18T05:34:58.141Z,21.30
2022-12-18T05:37:24.686Z,20.55
2022-12-18T05:39:51.114Z,21.42
2022-12-18T05:42:17.531Z,17.90
2022-12-18T05:44:44.815Z,16.67
2022-12-18T05:47:11.233Z,21.17
2022-12-18T05:49:37.641Z,23.65
2022-12-18T05:52:04.205Z,17.83
2022-12-18T05:54:30.666Z,22.30
2022-12-18T05:56:57.076Z,17.60
2022-12-18T05:59:23.607Z,22.88
2022-12-18T06:01:50.122Z,22.05
2022-12-18T06:04:18.929Z,21.30
2022-12-18T06:06:45.396Z,19.83
2022-12-18T06:09:13.081Z,21.27
2022-12-18T06:11:40.841Z,24.05
2022-12-18T06:14:07.943Z,21.17
2022-12-18T06:16:35.708Z,24.38
2022-12-18T06:19:06.321Z,20.33
2022-12-18T06:21:33.197Z,18.47
2022-12-18T06:24:00.758Z,19.38
2022-12-18T06:26:28.549Z,21.48
2022-12-18T06:28:55.399Z,21.65
2022-12-18T06:31:21.935Z,22.90
2022-12-18T06:33:48.457Z,15.23
2022-12-18T06:36:15.117Z,27.27
2022-12-18T06:38:43.228Z,19.02
2022-12-18T06:41:17.100Z,19.52
2022-12-18T06:43:53.568Z,19.95
2022-12-18T06:46:22.201Z,23.03
2022-12-18T06:48:50.827Z,19.95
2022-12-18T06:51:19.194Z,17.77
2022-12-18T06:53:45.709Z,20.35
2022-12-18T06:56:13.222Z,18.80
2022-12-18T06:58:40.376Z,19.37
2022-12-18T07:01:09.722Z,18.63
2022-12-18T07:03:36.483Z,23.00
2022-12-18T07:06:03.492Z,21.00
2022-12-18T07:08:31.209Z,18.67
2022-12-18T07:10:57.920Z,22.33
2022-12-18T07:13:32.977Z,24.98
2022-12-18T07:16:17.146Z,18.38
2022-12-18T07:18:46.215Z,20.10
2022-12-18T07:21:15.884Z,21.15
2022-12-18T07:23:42.958Z,22.43
2022-12-18T07:26:13.125Z,18.77
2022-12-18T07:28:42.180Z,19.50
2022-12-18T07:31:17.369Z,21.52
2022-12-18T07:33:44.734Z,17.90
2022-12-18T07:36:11.953Z,17.30
2022-12-18T07:38:38.594Z,19.58
2022-12-18T07:41:10.455Z,20.52
2022-12-18T07:43:42.332Z,17.83
2022-12-18T07:46:09.851Z,19.20
2022-12-18T07:48:36.476Z,16.13
2022-12-18T07:51:05.179Z,18.58
2022-12-18T07:53:32.299Z,16.30
2022-12-18T07:58:52.654Z,11.88
2022-12-18T08:01:19.224Z,16.80
2022-12-18T08:03:47.721Z,14.68
2022-12-18T08:06:14.649Z,14.43
2022-12-18T08:08:43.231Z,13.70
2022-12-18T08:11:09.799Z,15.30
2022-12-18T08:13:36.458Z,15.63
2022-12-18T08:16:08.575Z,12.15
2022-12-18T08:18:36.667Z,14.02
2022-12-18T08:21:17.933Z,14.65
2022-12-18T08:23:55.188Z,14.00
2022-12-18T08:26:25.076Z,10.07
2022-12-18T08:28:51.991Z,12.45
2022-12-18T08:31:19.496Z,16.40
2022-12-18T08:33:48.537Z,15.60
2022-12-18T08:36:17.347Z,15.40
2022-12-18T08:38:44.445Z,16.17
2022-12-18T08:41:14.177Z,16.45
2022-12-18T08:44:01.161Z,14.88
2022-12-18T08:46:33.493Z,14.45
2022-12-18T08:49:00.162Z,14.45
2022-12-18T08:51:27.287Z,13.97
2022-12-18T08:53:53.804Z,16.17
2022-12-18T08:56:20.289Z,15.48
2022-12-18T08:58:46.792Z,12.60
2022-12-18T09:01:14.593Z,15.13
2022-12-18T09:03:41.676Z,16.10
2022-12-18T09:06:08.756Z,13.73
2022-12-18T09:08:38.116Z,16.15
2022-12-18T09:11:05.112Z,14.57
2022-12-18T09:13:31.698Z,15.23
2022-12-18T09:15:58.208Z,15.70
2022-12-18T09:18:25.344Z,15.82
2022-12-18T09:20:53.722Z,18.98
2022-12-18T09:23:20.833Z,17.90
2022-12-18T09:25:47.308Z,15.65
2022-12-18T09:28:15.864Z,17.73
2022-12-18T09:30:44.203Z,16.67
2022-12-18T09:33:10.798Z,18.50
2022-12-18T09:35:38.433Z,15.10
2022-12-18T09:38:05.011Z,16.63
2022-12-18T09:40:37.435Z,16.33
2022-12-18T09:43:05.904Z,18.60
2022-12-18T09:45:42.682Z,17.35
2022-12-18T09:48:35.836Z,18.05
2022-12-18T09:51:06.493Z,16.08
2022-12-18T09:53:36.313Z,17.10
2022-12-18T09:56:05.093Z,17.08
2022-12-18T09:59:01.293Z,15.57
2022-12-18T10:01:37.664Z,17.48
2022-12-18T10:04:10.003Z,15.82
2022-12-18T10:06:41.217Z,14.93
2022-12-18T10:09:13.891Z,15.82
2022-12-18T10:12:22.365Z,14.55
2022-12-18T10:15:11.663Z,14.48
2022-12-18T10:18:21.668Z,14.50
2022-12-18T10:20:50.845Z,11.27
2022-12-18T10:23:38.195Z,12.05
2022-12-18T10:26:07.609Z,12.77
2022-12-18T10:28:40.164Z,15.02
2022-12-18T10:31:08.210Z,15.25
2022-12-18T10:33:35.545Z,14.93
2022-12-18T10:36:02.009Z,12.20
2022-12-18T10:38:30.790Z,13.57
2022-12-18T10:41:02.644Z,14.77
2022-12-18T10:43:37.171Z,18.33
2022-12-18T10:46:09.727Z,12.07
2022-12-18T10:48:50.526Z,12.38
2022-12-18T10:51:38.248Z,14.13
2022-12-18T10:54:24.397Z,13.80
2022-12-18T10:56:50.847Z,12.80
2022-12-18T10:59:18.806Z,13.30
2022-12-18T11:01:52.436Z,15.68
2022-12-18T11:04:27.374Z,15.88
2022-12-18T11:07:01.242Z,17.25
2022-12-18T11:09:38.530Z,11.80
2022-12-18T11:12:25.312Z,13.57
2022-12-18T11:14:53.384Z,12.85
2022-12-18T11:17:58.315Z,14.48
2022-12-18T11:21:02.486Z,14.05
2022-12-18T11:23:30.291Z,12.43
2022-12-18T11:25:59.334Z,13.40
2022-12-18T11:28:42.405Z,13.88
2022-12-18T11:31:24.019Z,11.27
2022-12-18T11:36:50.303Z,12.95
2022-12-18T11:39:21.020Z,12.20
2022-12-18T11:42:11.132Z,12.63
2022-12-18T11:44:49.188Z,10.82
2022-12-18T11:47:31.198Z,13.15
2022-12-18T11:50:12.634Z,10.70
2022-12-18T11:52:43.654Z,10.43
2022-12-18T11:55:16.184Z,12.82
2022-12-18T11:57:49.593Z,10.48
2022-12-18T12:00:22.473Z,13.77
2022-12-18T12:03:14.795Z,10.23
2022-12-18T12:05:53.580Z,12.00
2022-12-18T12:08:39.480Z,12.40
2022-12-18T12:11:15.055Z,10.90
2022-12-18T12:14:00.572Z,11.15
2022-12-18T12:16:37.636Z,11.30
2022-12-18T12:19:30.175Z,12.23
2022-12-18T12:22:08.602Z,12.55
2022-12-18T12:25:13.382Z,13.93
2022-12-18T12:27:50.596Z,16.20
2022-12-18T12:30:23.316Z,11.23
2022-12-18T12:33:19.329Z,10.53
2022-12-18T12:36:02.621Z,14.05
2022-12-18T12:38:49.866Z,10.80
2022-12-18T12:41:40.941Z,12.55
2022-12-18T12:44:11.080Z,10.95
2022-12-18T12:46:42.931Z,10.57
2022-12-18T12:49:14.529Z,7.80
2022-12-18T12:51:43.230Z,11.27
2022-12-18T12:54:21.949Z,11.35
2022-12-18T12:57:13.310Z,12.68
2022-12-18T13:00:07.336Z,12.80
2022-12-18T13:02:46.190Z,11.25
2022-12-18T13:05:47.366Z,12.55
2022-12-18T13:08:31.108Z,13.50
2022-12-18T13:14:30.582Z,11.30
2022-12-18T13:17:27.374Z,15.70
2022-12-18T13:20:11.072Z,17.88
2022-12-18T13:22:47.210Z,15.85
2022-12-18T13:25:33.318Z,16.33
2022-12-18T13:28:07.522Z,15.97
2022-12-18T13:30:33.930Z,15.40
2022-12-18T13:33:16.019Z,12.35
2022-12-18T13:35:48.770Z,13.77
2022-12-18T13:38:34.258Z,14.02
2022-12-18T13:41:15.886Z,14.57
2022-12-18T13:43:47.635Z,19.42
2022-12-18T13:46:31.678Z,14.30
2022-12-18T13:49:02.391Z,12.60
2022-12-18T13:51:32.067Z,16.33
2022-12-18T13:54:03.455Z,14.37
2022-12-18T13:56:32.753Z,17.73
2022-12-18T13:59:25.518Z,15.30
2022-12-18T14:01:56.006Z,15.18
2022-12-18T14:04:27.671Z,15.02
2022-12-18T14:07:07.523Z,18.93
2022-12-18T14:09:37.835Z,13.40
2022-12-18T14:12:25.025Z,17.00
2022-12-18T14:14:55.185Z,9.98
2022-12-18T14:17:21.999Z,20.20
2022-12-18T14:19:52.125Z,19.10
2022-12-18T14:22:28.902Z,18.17
2022-12-18T14:25:14.044Z,17.95
2022-12-18T14:27:50.681Z,14.02
2022-12-18T14:30:36.806Z,17.58
2022-12-18T14:33:14.928Z,24.33
2022-12-18T14:35:53.859Z,6.55
2022-12-18T14:38:32.128Z,21.35
2022-12-18T14:41:00.892Z,18.63
2022-12-18T14:43:29.533Z,18.25
2022-12-18T14:45:57.032Z,15.37
2022-12-18T14:48:35.937Z,20.60
2022-12-18T14:51:28.343Z,10.65
2022-12-18T14:53:55.495Z,15.20
2022-12-18T14:56:23.839Z,20.98
2022-12-18T14:58:54.194Z,23.33
2022-12-18T15:01:32.899Z,24.33
2022-12-18T15:04:00.476Z,17.80
2022-12-18T15:06:37.156Z,23.48
2022-12-18T15:09:23.267Z,21.88
2022-12-18T15:11:57.569Z,18.23
2022-12-18T15:14:42.657Z,22.33
2022-12-18T15:17:35.203Z,21.73
2022-12-18T15:20:04.427Z,20.20
2022-12-18T15:22:36.320Z,20.80
2022-12-18T15:25:04.920Z,24.00
2022-12-18T15:27:36.709Z,24.73
2022-12-18T15:30:19.061Z,6.15
2022-12-18T15:32:45.944Z,17.98
2022-12-18T15:35:12.272Z,28.05
2022-12-18T15:37:40.426Z,27.40
2022-12-18T15:40:22.345Z,23.65
2022-12-18T15:43:08.175Z,17.73
2022-12-18T15:45:34.587Z,21.67
2022-12-18T15:48:01.051Z,22.13
2022-12-18T15:50:27.530Z,15.97
2022-12-18T15:52:59.103Z,20.05
2022-12-18T15:55:43.965Z,22.90
2022-12-18T15:58:15.315Z,28.58
2022-12-18T16:00:42.972Z,17.08
2022-12-18T16:03:10.258Z,27.87
2022-12-18T16:05:36.913Z,24.38
2022-12-18T16:08:03.389Z,18.80
2022-12-18T16:10:30.210Z,27.63
2022-12-18T16:12:56.696Z,25.00
2022-12-18T16:15:24.987Z,25.73
2022-12-18T16:17:52.605Z,23.95
2022-12-18T16:20:21.689Z,24.30
2022-12-18T16:22:48.753Z,22.45
2022-12-18T16:25:21.131Z,34.00
2022-12-18T16:27:48.005Z,28.63
2022-12-18T16:30:16.785Z,35.67
2022-12-18T16:32:43.490Z,33.75
2022-12-18T16:35:14.547Z,37.30
2022-12-18T16:37:41.769Z,8.15
2022-12-18T16:40:10.921Z,18.13
2022-12-18T16:42:41.504Z,22.98
2022-12-18T16:45:09.401Z,24.60
2022-12-18T16:47:36.091Z,24.33
2022-12-18T16:50:02.569Z,29.90
2022-12-18T16:52:30.222Z,30.30
2022-12-18T16:54:56.921Z,20.38
2022-12-18T16:57:25.560Z,20.73
2022-12-18T16:59:52.284Z,23.30
2022-12-18T17:02:28.614Z,31.13
2022-12-18T17:04:58.872Z,19.30
2022-12-18T17:07:26.382Z,28.15
2022-12-18T17:09:54.151Z,29.27
2022-12-18T17:12:21.123Z,16.95
2022-12-18T17:14:47.766Z,29.95
2022-12-18T17:17:23.025Z,24.50
2022-12-18T17:19:50.739Z,16.20
2022-12-18T17:22:17.408Z,9.40
2022-12-18T17:24:46.491Z,27.10
2022-12-18T17:27:14.197Z,31.63
2022-12-18T17:29:47.384Z,21.73
2022-12-18T17:32:17.971Z,30.98
2022-12-18T17:35:03.916Z,16.13
2022-12-18T17:37:35.267Z,22.25
2022-12-18T17:40:02.756Z,33.65
2022-12-18T17:42:30.511Z,37.17
2022-12-18T17:44:56.997Z,23.52
2022-12-18T17:47:23.549Z,19.85
2022-12-18T17:49:51.169Z,17.48
2022-12-18T17:52:18.021Z,24.92
2022-12-18T17:54:46.954Z,26.47
2022-12-18T17:57:13.889Z,34.25
2022-12-18T17:59:40.352Z,23.90
2022-12-18T18:02:07.378Z,29.25
2022-12-18T18:04:34.911Z,30.10
2022-12-18T18:07:01.444Z,8.70
2022-12-18T18:09:27.915Z,27.58
2022-12-18T18:12:13.178Z,31.60
2022-12-18T18:14:39.758Z,25.30
2022-12-18T18:17:06.221Z,32.70
2022-12-18T18:19:33.566Z,22.67
2022-12-18T18:22:00.438Z,25.83
2022-12-18T18:24:27.741Z,27.73
2022-12-18T18:26:54.230Z,25.60
2022-12-18T18:29:23.557Z,13.05
2022-12-18T18:31:50.278Z,26.67
2022-12-18T18:34:25.770Z,23.60
2022-12-18T18:36:52.362Z,25.40
2022-12-18T18:39:19.481Z,33.13
2022-12-18T18:41:47.969Z,21.88
2022-12-18T18:44:18.477Z,31.00
2022-12-18T18:46:45.206Z,19.30
2022-12-18T18:49:17.758Z,20.23
2022-12-18T18:51:44.178Z,34.28
2022-12-18T18:54:10.877Z,28.25
2022-12-18T18:59:31.607Z,25.02
2022-12-18T19:02:00.010Z,40.42
2022-12-18T19:04:31.698Z,11.60
2022-12-18T19:06:58.152Z,21.08
2022-12-18T19:09:24.709Z,23.03
2022-12-18T19:12:11.136Z,35.60
2022-12-18T19:14:37.844Z,35.95
2022-12-18T19:17:04.644Z,38.88
2022-12-18T19:19:32.222Z,40.63
2022-12-18T19:21:59.253Z,23.10
2022-12-18T19:24:25.739Z,28.60
2022-12-18T19:26:58.077Z,26.60
2022-12-18T19:29:24.975Z,52.17
2022-12-18T19:31:51.665Z,24.13
2022-12-18T19:34:18.171Z,34.77
2022-12-18T19:36:44.806Z,41.13
2022-12-18T19:39:15.538Z,44.90
2022-12-18T19:41:44.301Z,47.22
2022-12-18T19:44:13.755Z,9.00
2022-12-18T19:46:54.755Z,23.43
2022-12-18T19:49:21.271Z,20.80
2022-12-18T19:51:47.764Z,49.92
2022-12-18T19:54:18.076Z,24.85
2022-12-18T19:56:47.567Z,20.33
2022-12-18T19:59:14.136Z,56.37
2022-12-18T20:01:44.474Z,47.80
2022-12-18T20:04:12.452Z,15.07
2022-12-18T20:06:53.229Z,38.35
2022-12-18T20:09:20.603Z,30.35
2022-12-18T20:11:48.500Z,28.17
2022-12-18T20:14:19.638Z,25.25
2022-12-18T20:16:51.050Z,48.47
2022-12-18T20:19:18.543Z,45.00
2022-12-18T20:21:45.326Z,32.35
2022-12-18T20:24:12.287Z,26.00
2022-12-18T20:26:38.884Z,44.75
2022-12-18T20:29:05.536Z,40.33
2022-12-18T20:31:32.555Z,22.70
2022-12-18T20:34:01.549Z,34.15
2022-12-18T20:36:29.507Z,19.27
2022-12-18T20:39:00.542Z,43.15
2022-12-18T20:41:31.600Z,36.67
2022-12-18T20:44:04.805Z,41.33
2022-12-18T20:46:32.568Z,53.60
2022-12-18T20:48:59.179Z,54.93
2022-12-18T20:51:28.007Z,40.75
2022-12-18T20:53:55.674Z,35.90
2022-12-18T20:56:22.782Z,53.45
2022-12-18T20:58:50.523Z,47.30
2022-12-18T21:01:21.623Z,46.20
2022-12-18T21:03:48.728Z,50.38
2022-12-18T21:06:16.642Z,53.40
2022-12-18T21:08:43.208Z,22.73
2022-12-18T21:11:40.676Z,33.70
2022-12-18T21:14:13.040Z,46.87
2022-12-18T21:16:43.819Z,47.38
2022-12-18T21:19:21.245Z,58.80
2022-12-18T21:21:47.884Z,31.63
2022-12-18T21:24:14.482Z,22.27
2022-12-18T21:26:45.815Z,31.93
2022-12-18T21:29:21.670Z,44.08
2022-12-18T21:31:48.558Z,44.55
2022-12-18T21:34:25.552Z,50.25
2022-12-18T21:36:52.567Z,46.25
2022-12-18T21:39:19.305Z,21.90
2022-12-18T21:42:07.185Z,56.03
2022-12-18T21:44:38.096Z,38.97
2022-12-18T21:47:21.748Z,42.63
2022-12-18T21:49:51.266Z,12.13
2022-12-18T21:52:17.749Z,35.60
2022-12-18T21:54:44.275Z,44.22
2022-12-18T21:57:11.031Z,37.83
2022-12-18T21:59:39.868Z,19.10
2022-12-18T22:02:14.680Z,50.20
2022-12-18T22:05:20.072Z,28.17
2022-12-18T22:08:26.150Z,36.03
2022-12-18T22:10:53.042Z,50.75
2022-12-18T22:13:19.614Z,27.08
2022-12-18T22:15:47.293Z,42.17
2022-12-18T22:18:13.883Z,27.47
2022-12-18T22:20:40.314Z,43.03
2022-12-18T22:23:06.820Z,31.25
2022-12-18T22:25:34.430Z,23.65
2022-12-18T22:28:20.103Z,27.77
2022-12-18T22:30:46.595Z,22.97
2022-12-18T22:33:13.044Z,19.48
2022-12-18T22:35:39.679Z,38.28
2022-12-18T22:38:07.667Z,35.47
2022-12-18T22:40:34.118Z,27.92
2022-12-18T22:43:00.766Z,16.43
2022-12-18T22:45:27.836Z,31.85
2022-12-18T22:47:54.458Z,59.35
2022-12-18T22:50:20.990Z,28.65
2022-12-18T22:52:47.453Z,21.45
2022-12-18T22:55:13.914Z,28.40
2022-12-18T22:57:41.149Z,28.27
2022-12-18T23:00:15.662Z,35.33
2022-12-18T23:02:44.019Z,21.77
2022-12-18T23:05:10.715Z,24.40
2022-12-18T23:07:37.176Z,35.63
2022-12-18T23:10:03.940Z,44.15
2022-12-18T23:12:30.391Z,46.65
2022-12-18T23:14:58.621Z,39.85
2022-12-18T23:17:25.031Z,39.33
2022-12-18T23:19:51.448Z,34.47
2022-12-18T23:22:17.962Z,54.22
2022-12-18T23:24:44.482Z,51.63
2022-12-18T23:27:11.573Z,51.78
2022-12-18T23:29:39.369Z,71.70
2022-12-18T23:32:05.862Z,25.97
2022-12-18T23:34:32.301Z,64.72
2022-12-18T23:37:00.799Z,34.53
2022-12-18T23:39:30.100Z,63.20
2022-12-18T23:42:01.498Z,49.88
2022-12-18T23:44:28.240Z,27.93
2022-12-18T23:46:54.798Z,71.00
2022-12-18T23:49:21.448Z,43.10
2022-12-18T23:51:48.351Z,28.20
2022-12-18T23:54:14.821Z,69.60
2022-12-18T23:56:41.577Z,94.87
2022-12-18T23:59:07.990Z,56.83
